Time;durP1;ratioP1;P1;durP2;ratioP2;P2;SDS_P1;SDS_P2;PMS_P1;PMS_P2;Temp;Humidity;BMP_temperature;BMP_pressure;BME280_temperature;BME280_humidity;BME280_pressure;Samples;Min_cycle;Max_cycle;Signal;HPM_P1;HPM_P2
2023/05/07 00:01:06;;;;;;;24.35;11.65;;;;;;;;;;5036496;28;20110;-77
2023/05/07 00:03:32;;;;;;;25.65;12.48;;;;;;;;;;5020118;28;20135;-78
2023/05/07 00:05:58;;;;;;;27.83;11.82;;;;;;;;;;5036711;28;20042;-77
2023/05/07 00:08:23;;;;;;;27.35;12.45;;;;;;;;;;5020108;28;20152;-77
2023/05/07 00:10:49;;;;;;;22.88;11.77;;;;;;;;;;5054349;28;20584;-77
2023/05/07 00:13:14;;;;;;;33.17;11.77;;;;;;;;;;5019804;28;20028;-77
2023/05/07 00:15:40;;;;;;;23.23;11.95;;;;;;;;;;5019928;28;20025;-77
2023/05/07 00:18:05;;;;;;;25.80;12.05;;;;;;;;;;5019814;28;20441;-78
2023/05/07 00:20:30;;;;;;;24.42;10.70;;;;;;;;;;5019913;28;20029;-77
2023/05/07 00:22:56;;;;;;;26.38;11.50;;;;;;;;;;5019954;28;20032;-77
2023/05/07 00:25:21;;;;;;;24.92;11.30;;;;;;;;;;5019811;28;20028;-78
2023/05/07 00:27:47;;;;;;;29.45;11.18;;;;;;;;;;5036037;28;20466;-78
2023/05/07 00:30:12;;;;;;;21.55;11.13;;;;;;;;;;5036134;28;20048;-77
2023/05/07 00:32:38;;;;;;;23.75;11.73;;;;;;;;;;5019580;28;20032;-77
2023/05/07 00:35:04;;;;;;;25.73;11.40;;;;;;;;;;5019828;28;20391;-78
2023/05/07 00:37:30;;;;;;;25.05;10.73;;;;;;;;;;5035896;28;20033;-79
2023/05/07 00:39:55;;;;;;;25.58;11.20;;;;;;;;;;5019808;28;20036;-79
2023/05/07 00:42:21;;;;;;;25.88;10.98;;;;;;;;;;5053716;28;20020;-79
2023/05/07 00:44:46;;;;;;;26.25;12.02;;;;;;;;;;5019539;28;20435;-78
2023/05/07 00:47:12;;;;;;;20.25;10.45;;;;;;;;;;5000786;28;20040;-79
2023/05/07 00:49:39;;;;;;;26.13;11.40;;;;;;;;;;5053538;28;20443;-79
2023/05/07 00:52:10;;;;;;;27.08;11.10;;;;;;;;;;5036218;28;20438;-79
2023/05/07 00:54:35;;;;;;;27.48;11.13;;;;;;;;;;5020420;28;20045;-79
2023/05/07 00:57:02;;;;;;;23.90;11.02;;;;;;;;;;5019593;28;20458;-79
2023/05/07 00:59:28;;;;;;;26.38;11.25;;;;;;;;;;5035727;28;20025;-79
2023/05/07 01:01:54;;;;;;;25.80;12.52;;;;;;;;;;5019129;28;20124;-79
2023/05/07 01:04:19;;;;;;;26.42;10.98;;;;;;;;;;5036322;28;20510;-78
2023/05/07 01:06:45;;;;;;;26.05;11.43;;;;;;;;;;5020006;28;20035;-79
2023/05/07 01:09:10;;;;;;;24.02;11.75;;;;;;;;;;5036504;28;20031;-79
2023/05/07 01:11:36;;;;;;;25.58;11.07;;;;;;;;;;5036951;28;20083;-78
2023/05/07 01:14:01;;;;;;;28.33;11.88;;;;;;;;;;5035995;28;20040;-79
2023/05/07 01:16:27;;;;;;;27.05;12.63;;;;;;;;;;5036694;28;20055;-79
2023/05/07 01:18:52;;;;;;;28.90;13.18;;;;;;;;;;5023491;28;20025;-79
2023/05/07 01:21:18;;;;;;;37.20;12.25;;;;;;;;;;5039669;28;20029;-79
2023/05/07 01:23:45;;;;;;;31.40;12.07;;;;;;;;;;5023022;28;20082;-79
2023/05/07 01:26:10;;;;;;;24.58;12.27;;;;;;;;;;5023337;28;20032;-79
2023/05/07 01:28:35;;;;;;;31.23;12.10;;;;;;;;;;5023198;28;20036;-79
2023/05/07 01:31:03;;;;;;;30.30;12.93;;;;;;;;;;5006166;28;20029;-78
2023/05/07 01:33:29;;;;;;;37.15;13.85;;;;;;;;;;5007130;28;20053;-78
2023/05/07 01:35:54;;;;;;;29.40;12.50;;;;;;;;;;5022842;28;20028;-78
2023/05/07 01:38:23;;;;;;;30.83;11.93;;;;;;;;;;5022890;28;20020;-78
2023/05/07 01:40:48;;;;;;;28.25;12.57;;;;;;;;;;5022805;28;20052;-79
2023/05/07 01:43:14;;;;;;;27.75;11.68;;;;;;;;;;5006618;28;20654;-79
2023/05/07 01:45:39;;;;;;;25.08;12.45;;;;;;;;;;5022419;28;20021;-80
2023/05/07 01:48:05;;;;;;;22.10;11.13;;;;;;;;;;5056941;28;20032;-79
2023/05/07 01:50:31;;;;;;;22.88;11.50;;;;;;;;;;5020669;28;20044;-78
2023/05/07 01:52:56;;;;;;;22.92;10.60;;;;;;;;;;5006657;28;20442;-79
2023/05/07 01:55:22;;;;;;;21.00;9.55;;;;;;;;;;5022505;28;20037;-79
2023/05/07 01:57:47;;;;;;;24.20;10.30;;;;;;;;;;5038988;28;20040;-78
2023/05/07 02:00:13;;;;;;;21.42;10.63;;;;;;;;;;5038551;28;20108;-79
2023/05/07 02:02:39;;;;;;;26.92;11.05;;;;;;;;;;5022333;28;20056;-79
2023/05/07 02:05:05;;;;;;;27.15;10.40;;;;;;;;;;5038854;28;20029;-79
2023/05/07 02:07:30;;;;;;;21.83;10.10;;;;;;;;;;5022024;28;20358;-78
2023/05/07 02:09:55;;;;;;;25.30;10.00;;;;;;;;;;5022468;28;20136;-78
2023/05/07 02:12:22;;;;;;;21.00;9.60;;;;;;;;;;5006240;28;20441;-79
2023/05/07 02:14:47;;;;;;;20.95;10.25;;;;;;;;;;5038291;28;20032;-78
2023/05/07 02:17:12;;;;;;;23.95;10.65;;;;;;;;;;5022199;28;20021;-79
2023/05/07 02:19:38;;;;;;;18.63;9.52;;;;;;;;;;5022159;28;20465;-79
2023/05/07 02:22:03;;;;;;;22.70;9.90;;;;;;;;;;5005720;28;20032;-79
2023/05/07 02:24:29;;;;;;;19.08;9.93;;;;;;;;;;5038661;28;20025;-79
2023/05/07 02:26:54;;;;;;;23.75;10.52;;;;;;;;;;5039191;28;20339;-79
2023/05/07 02:29:19;;;;;;;26.95;10.10;;;;;;;;;;5037190;28;20025;-78
2023/05/07 02:31:45;;;;;;;21.90;9.10;;;;;;;;;;5056189;28;20024;-79
2023/05/07 02:34:10;;;;;;;20.90;9.80;;;;;;;;;;5021732;28;20032;-79
2023/05/07 02:36:36;;;;;;;18.08;9.30;;;;;;;;;;5005404;28;20028;-79
2023/05/07 02:39:02;;;;;;;21.58;9.20;;;;;;;;;;5021922;28;20013;-78
2023/05/07 02:41:27;;;;;;;23.85;9.52;;;;;;;;;;5005447;28;20091;-79
2023/05/07 02:43:53;;;;;;;22.45;9.13;;;;;;;;;;5037896;28;20020;-78
2023/05/07 02:46:18;;;;;;;19.75;9.18;;;;;;;;;;5004612;28;20296;-78
2023/05/07 02:48:44;;;;;;;20.95;9.68;;;;;;;;;;5021661;28;20417;-78
2023/05/07 02:51:09;;;;;;;24.48;10.70;;;;;;;;;;5053717;28;20060;-79
2023/05/07 02:53:35;;;;;;;23.55;10.52;;;;;;;;;;5055524;28;20032;-79
2023/05/07 02:56:01;;;;;;;27.13;11.68;;;;;;;;;;5037922;28;20032;-79
2023/05/07 02:58:26;;;;;;;22.35;10.55;;;;;;;;;;5037667;28;20024;-79
2023/05/07 03:00:52;;;;;;;20.83;9.40;;;;;;;;;;5037900;28;20447;-79
2023/05/07 03:03:17;;;;;;;20.60;9.02;;;;;;;;;;5037513;28;20518;-79
2023/05/07 03:05:43;;;;;;;22.55;8.13;;;;;;;;;;5037850;28;20029;-78
2023/05/07 03:08:08;;;;;;;16.55;7.43;;;;;;;;;;5021292;28;20033;-78
2023/05/07 03:10:34;;;;;;;19.33;8.25;;;;;;;;;;5021240;28;20028;-79
2023/05/07 03:13:00;;;;;;;18.52;8.35;;;;;;;;;;5037243;28;20029;-79
2023/05/07 03:15:26;;;;;;;14.95;7.55;;;;;;;;;;5004844;28;20029;-79
2023/05/07 03:17:51;;;;;;;19.30;8.57;;;;;;;;;;5037510;28;20032;-78
2023/05/07 03:20:17;;;;;;;21.27;7.40;;;;;;;;;;5020883;28;20362;-78
2023/05/07 03:22:42;;;;;;;18.20;7.00;;;;;;;;;;5037606;28;20028;-79
2023/05/07 03:25:08;;;;;;;22.75;7.15;;;;;;;;;;5002389;28;20072;-78
2023/05/07 03:27:33;;;;;;;17.67;6.75;;;;;;;;;;5004491;28;20040;-78
2023/05/07 03:29:59;;;;;;;20.98;7.82;;;;;;;;;;5037315;28;20025;-79
2023/05/07 03:32:25;;;;;;;19.90;7.32;;;;;;;;;;5037197;28;20021;-79
2023/05/07 03:34:50;;;;;;;15.07;6.60;;;;;;;;;;5020569;28;20343;-79
2023/05/07 03:37:15;;;;;;;19.40;7.20;;;;;;;;;;5037208;28;20021;-79
2023/05/07 03:39:41;;;;;;;16.52;7.90;;;;;;;;;;5003972;28;20025;-78
2023/05/07 03:42:06;;;;;;;18.33;7.70;;;;;;;;;;5054538;28;20021;-78
2023/05/07 03:44:32;;;;;;;21.02;7.70;;;;;;;;;;5036992;28;20024;-78
2023/05/07 03:46:57;;;;;;;16.70;7.53;;;;;;;;;;5036995;28;20021;-79
2023/05/07 03:49:22;;;;;;;23.95;8.38;;;;;;;;;;5004356;28;20028;-79
2023/05/07 03:51:48;;;;;;;17.50;6.90;;;;;;;;;;5020332;28;20465;-78
2023/05/07 03:54:13;;;;;;;13.70;6.95;;;;;;;;;;5034786;28;20063;-78
2023/05/07 03:56:39;;;;;;;17.92;7.28;;;;;;;;;;5036545;28;20033;-79
2023/05/07 03:59:04;;;;;;;18.05;7.80;;;;;;;;;;5020175;28;20462;-79
2023/05/07 04:01:30;;;;;;;22.08;7.68;;;;;;;;;;5020067;28;20118;-79
2023/05/07 04:03:55;;;;;;;19.70;8.25;;;;;;;;;;5020222;28;20052;-78
2023/05/07 04:06:21;;;;;;;18.98;7.78;;;;;;;;;;5003854;28;20047;-78
2023/05/07 04:08:46;;;;;;;17.05;7.43;;;;;;;;;;5020152;28;20417;-79
2023/05/07 04:11:12;;;;;;;26.92;8.73;;;;;;;;;;5019747;28;20473;-78
2023/05/07 04:13:37;;;;;;;22.70;7.72;;;;;;;;;;5019907;28;20036;-79
2023/05/07 04:16:03;;;;;;;23.17;8.10;;;;;;;;;;5036446;28;20055;-79
2023/05/07 04:18:29;;;;;;;19.35;8.43;;;;;;;;;;5036362;28;20633;-79
2023/05/07 04:20:54;;;;;;;23.02;7.57;;;;;;;;;;5036366;28;20366;-79
2023/05/07 04:23:20;;;;;;;24.45;8.70;;;;;;;;;;5036213;28;20021;-79
2023/05/07 04:25:45;;;;;;;27.13;8.10;;;;;;;;;;5019590;28;20102;-79
2023/05/07 04:28:12;;;;;;;21.42;8.07;;;;;;;;;;5036395;28;20025;-79
2023/05/07 04:30:37;;;;;;;23.58;8.52;;;;;;;;;;5036666;28;20079;-79
2023/05/07 04:33:03;;;;;;;20.48;7.82;;;;;;;;;;5036271;28;20021;-80
2023/05/07 04:35:28;;;;;;;23.40;8.77;;;;;;;;;;5036064;28;20032;-79
2023/05/07 04:37:54;;;;;;;20.92;8.32;;;;;;;;;;5019819;28;20025;-79
2023/05/07 04:40:19;;;;;;;24.50;9.05;;;;;;;;;;5035770;28;20335;-79
2023/05/07 04:42:45;;;;;;;19.42;8.85;;;;;;;;;;5019751;28;20029;-78
2023/05/07 04:45:12;;;;;;;22.88;9.70;;;;;;;;;;5035958;28;20132;-79
2023/05/07 04:47:37;;;;;;;18.23;9.57;;;;;;;;;;5036069;28;20494;-79
2023/05/07 04:50:03;;;;;;;23.13;8.82;;;;;;;;;;5019498;28;20080;-76
2023/05/07 04:52:28;;;;;;;22.25;9.38;;;;;;;;;;5035265;28;20075;-79
2023/05/07 04:54:54;;;;;;;22.95;9.68;;;;;;;;;;5034754;28;20044;-79
2023/05/07 04:57:19;;;;;;;25.25;10.07;;;;;;;;;;5022405;28;20029;-79
2023/05/07 04:59:45;;;;;;;22.33;9.55;;;;;;;;;;5039250;28;20016;-79
2023/05/07 05:02:10;;;;;;;21.98;9.60;;;;;;;;;;5055493;28;20076;-79
2023/05/07 05:04:36;;;;;;;24.60;10.68;;;;;;;;;;5039182;28;20434;-80
2023/05/07 05:07:03;;;;;;;26.90;11.65;;;;;;;;;;5039229;28;20020;-79
2023/05/07 05:09:29;;;;;;;24.42;10.90;;;;;;;;;;5055895;28;20035;-79
2023/05/07 05:11:55;;;;;;;27.90;10.55;;;;;;;;;;5055569;28;20025;-78
2023/05/07 05:14:20;;;;;;;23.10;10.85;;;;;;;;;;5039082;28;20037;-79
2023/05/07 05:16:45;;;;;;;27.15;10.30;;;;;;;;;;5039150;28;20354;-79
2023/05/07 05:19:11;;;;;;;26.67;9.75;;;;;;;;;;5055534;28;20467;-79
2023/05/07 05:21:36;;;;;;;24.80;10.20;;;;;;;;;;5038911;28;20042;-79
2023/05/07 05:24:02;;;;;;;22.75;9.68;;;;;;;;;;5039133;28;20017;-79
2023/05/07 05:26:27;;;;;;;32.30;10.13;;;;;;;;;;5039264;28;20082;-79
2023/05/07 05:28:52;;;;;;;26.05;10.25;;;;;;;;;;5038898;28;20024;-79
2023/05/07 05:31:18;;;;;;;26.65;9.38;;;;;;;;;;5073334;28;20024;-79
2023/05/07 05:33:43;;;;;;;28.45;9.35;;;;;;;;;;5055314;28;20024;-79
2023/05/07 05:36:10;;;;;;;22.05;9.00;;;;;;;;;;5022398;28;20028;-77
2023/05/07 05:38:35;;;;;;;20.10;9.07;;;;;;;;;;5055224;28;20353;-76
2023/05/07 05:41:00;;;;;;;17.58;9.30;;;;;;;;;;5073367;28;20032;-77
2023/05/07 05:43:26;;;;;;;23.80;9.25;;;;;;;;;;5073730;28;20024;-77
2023/05/07 05:45:51;;;;;;;16.83;9.20;;;;;;;;;;5055267;28;20046;-78
2023/05/07 05:48:17;;;;;;;20.45;9.27;;;;;;;;;;5055263;28;20032;-78
2023/05/07 05:50:42;;;;;;;25.60;9.32;;;;;;;;;;5054932;28;20020;-78
2023/05/07 05:53:07;;;;;;;23.83;8.65;;;;;;;;;;5038540;28;20087;-77
2023/05/07 05:55:33;;;;;;;18.10;8.27;;;;;;;;;;5072871;28;20086;-77
2023/05/07 05:58:00;;;;;;;14.70;8.57;;;;;;;;;;5026109;28;20057;-77
2023/05/07 06:00:26;;;;;;;18.13;9.15;;;;;;;;;;4999339;28;20033;-77
2023/05/07 06:02:51;;;;;;;17.95;9.25;;;;;;;;;;5000881;28;20391;-78
2023/05/07 06:05:17;;;;;;;22.33;9.68;;;;;;;;;;5002276;28;20045;-78
2023/05/07 06:07:42;;;;;;;18.23;9.05;;;;;;;;;;5036757;28;20423;-78
2023/05/07 06:10:08;;;;;;;17.48;9.57;;;;;;;;;;5019041;28;20033;-78
2023/05/07 06:12:33;;;;;;;15.32;9.00;;;;;;;;;;5018918;28;20427;-77
2023/05/07 06:14:59;;;;;;;16.17;8.70;;;;;;;;;;5002409;28;20025;-77
2023/05/07 06:17:24;;;;;;;16.55;9.15;;;;;;;;;;5002721;28;20029;-77
2023/05/07 06:19:50;;;;;;;13.77;8.35;;;;;;;;;;5018633;28;20029;-79
2023/05/07 06:22:16;;;;;;;19.30;8.93;;;;;;;;;;5002333;28;20045;-78
2023/05/07 06:24:41;;;;;;;17.70;7.95;;;;;;;;;;5018564;28;20029;-78
2023/05/07 06:27:07;;;;;;;16.05;7.78;;;;;;;;;;5018532;28;20026;-78
2023/05/07 06:29:33;;;;;;;15.27;8.30;;;;;;;;;;5018703;28;20025;-78
2023/05/07 06:32:11;;;;;;;16.52;8.82;;;;;;;;;;5036482;28;20103;-78
2023/05/07 06:34:37;;;;;;;15.63;8.57;;;;;;;;;;4985827;28;20079;-77
2023/05/07 06:37:02;;;;;;;25.27;8.95;;;;;;;;;;5018493;28;20067;-77
2023/05/07 06:39:28;;;;;;;19.25;8.55;;;;;;;;;;5018564;28;20037;-79
2023/05/07 06:41:53;;;;;;;19.67;9.15;;;;;;;;;;5018326;28;20029;-78
2023/05/07 06:44:18;;;;;;;19.23;9.13;;;;;;;;;;5001988;28;20044;-79
2023/05/07 06:46:44;;;;;;;13.32;7.97;;;;;;;;;;5002146;28;20447;-77
2023/05/07 06:49:10;;;;;;;14.93;7.88;;;;;;;;;;5035635;28;20032;-77
2023/05/07 06:51:36;;;;;;;18.17;7.63;;;;;;;;;;5002060;28;20033;-78
2023/05/07 06:54:01;;;;;;;16.73;8.05;;;;;;;;;;5035729;28;20033;-78
2023/05/07 06:56:27;;;;;;;17.95;8.35;;;;;;;;;;5002140;28;20383;-77
2023/05/07 06:58:52;;;;;;;15.73;7.82;;;;;;;;;;5022810;28;20439;-79
2023/05/07 07:01:17;;;;;;;14.40;7.90;;;;;;;;;;5037667;28;20354;-78
2023/05/07 07:03:43;;;;;;;17.25;7.68;;;;;;;;;;5020828;28;20140;-78
2023/05/07 07:06:08;;;;;;;20.17;7.82;;;;;;;;;;5037860;28;20052;-78
2023/05/07 07:08:34;;;;;;;16.20;7.80;;;;;;;;;;5021233;28;20378;-80
2023/05/07 07:11:00;;;;;;;18.30;8.00;;;;;;;;;;5021317;28;20029;-78
2023/05/07 07:13:25;;;;;;;13.55;7.28;;;;;;;;;;5037589;28;20474;-77
2023/05/07 07:15:51;;;;;;;17.08;7.63;;;;;;;;;;5036752;28;20037;-78
2023/05/07 07:18:17;;;;;;;13.05;7.72;;;;;;;;;;5004910;28;20356;-79
2023/05/07 07:20:44;;;;;;;12.38;7.50;;;;;;;;;;5037604;28;20051;-79
2023/05/07 07:23:09;;;;;;;18.40;7.88;;;;;;;;;;5037681;28;20024;-79
2023/05/07 07:25:35;;;;;;;12.60;7.10;;;;;;;;;;5020814;28;20340;-79
2023/05/07 07:28:00;;;;;;;12.88;7.82;;;;;;;;;;5055307;28;20033;-78
2023/05/07 07:30:26;;;;;;;13.63;7.47;;;;;;;;;;5037409;28;20159;-78
2023/05/07 07:32:52;;;;;;;13.20;7.18;;;;;;;;;;5020641;28;20541;-78
2023/05/07 07:35:18;;;;;;;11.82;7.75;;;;;;;;;;5054856;28;20433;-78
2023/05/07 07:37:43;;;;;;;15.93;6.75;;;;;;;;;;5037204;28;20029;-79
2023/05/07 07:40:09;;;;;;;11.13;7.00;;;;;;;;;;5037350;28;20021;-78
2023/05/07 07:42:34;;;;;;;17.73;7.25;;;;;;;;;;5036973;28;20033;-79
2023/05/07 07:45:00;;;;;;;13.52;6.72;;;;;;;;;;5020702;28;20114;-79
2023/05/07 07:47:25;;;;;;;14.65;7.38;;;;;;;;;;5036912;28;20021;-79
2023/05/07 07:49:51;;;;;;;18.50;7.53;;;;;;;;;;5036786;28;20458;-78
2023/05/07 07:52:16;;;;;;;12.68;7.07;;;;;;;;;;5036850;28;20028;-78
2023/05/07 07:54:42;;;;;;;13.32;6.75;;;;;;;;;;5020600;28;20434;-78
2023/05/07 07:57:08;;;;;;;11.07;6.60;;;;;;;;;;5020480;28;20092;-79
2023/05/07 07:59:34;;;;;;;10.85;6.65;;;;;;;;;;5036683;28;20462;-79
2023/05/07 08:01:59;;;;;;;9.07;6.38;;;;;;;;;;5034638;28;20119;-79
2023/05/07 08:04:24;;;;;;;8.10;5.70;;;;;;;;;;5054385;28;20029;-78
2023/05/07 08:06:50;;;;;;;12.48;6.30;;;;;;;;;;5036411;28;20039;-79
2023/05/07 08:09:15;;;;;;;14.18;6.78;;;;;;;;;;5036655;28;20025;-78
2023/05/07 08:11:41;;;;;;;8.85;5.90;;;;;;;;;;5036697;28;20037;-78
2023/05/07 08:14:06;;;;;;;18.23;7.15;;;;;;;;;;5036424;28;20029;-79
2023/05/07 08:16:32;;;;;;;11.00;6.10;;;;;;;;;;5036262;28;20023;-79
2023/05/07 08:18:57;;;;;;;11.05;7.38;;;;;;;;;;5036185;28;20025;-78
2023/05/07 08:24:07;;;;;;;11.05;6.43;;;;;;;;;;5025049;28;20032;-78
2023/05/07 08:26:32;;;;;;;13.20;6.70;;;;;;;;;;5019085;28;20025;-78
2023/05/07 08:28:57;;;;;;;13.13;6.50;;;;;;;;;;5054288;28;20393;-78
2023/05/07 08:31:23;;;;;;;11.13;7.15;;;;;;;;;;5036048;28;20025;-78
2023/05/07 08:33:48;;;;;;;10.13;6.43;;;;;;;;;;5035884;28;20070;-79
2023/05/07 08:36:14;;;;;;;10.68;6.50;;;;;;;;;;5053889;28;20028;-79
2023/05/07 08:38:42;;;;;;;13.98;5.82;;;;;;;;;;5019483;28;20053;-78
2023/05/07 08:41:10;;;;;;;9.10;6.18;;;;;;;;;;5053792;28;20051;-78
2023/05/07 08:43:35;;;;;;;10.93;5.95;;;;;;;;;;5003279;28;20044;-78
2023/05/07 08:46:02;;;;;;;10.65;5.43;;;;;;;;;;5019259;28;20017;-78
2023/05/07 08:48:27;;;;;;;14.63;6.25;;;;;;;;;;5019248;28;20389;-78
2023/05/07 08:50:52;;;;;;;10.85;5.85;;;;;;;;;;5018149;28;20021;-79
2023/05/07 08:53:18;;;;;;;10.52;6.20;;;;;;;;;;5053582;28;20092;-78
2023/05/07 08:55:43;;;;;;;8.40;6.13;;;;;;;;;;5019303;28;20032;-79
2023/05/07 08:58:08;;;;;;;13.80;6.10;;;;;;;;;;5019345;28;20025;-79
2023/05/07 09:00:36;;;;;;;12.68;6.00;;;;;;;;;;5035660;28;20363;-79
2023/05/07 09:03:01;;;;;;;12.43;5.85;;;;;;;;;;5002586;28;20048;-78
2023/05/07 09:05:27;;;;;;;10.80;5.60;;;;;;;;;;5032791;28;20032;-77
2023/05/07 09:07:52;;;;;;;10.43;6.07;;;;;;;;;;5019166;28;20446;-78
2023/05/07 09:10:18;;;;;;;10.07;6.10;;;;;;;;;;5018277;28;20028;-78
2023/05/07 09:12:43;;;;;;;9.35;6.30;;;;;;;;;;5018126;28;20370;-78
2023/05/07 09:15:09;;;;;;;8.80;6.00;;;;;;;;;;5035642;28;20102;-78
2023/05/07 09:17:34;;;;;;;7.32;6.03;;;;;;;;;;5052610;28;20025;-78
2023/05/07 09:20:04;;;;;;;7.80;5.93;;;;;;;;;;5035513;28;20025;-78
2023/05/07 09:22:34;;;;;;;7.47;5.38;;;;;;;;;;5019034;28;20044;-77
2023/05/07 09:24:59;;;;;;;10.57;5.88;;;;;;;;;;5019116;28;20037;-77
2023/05/07 09:27:25;;;;;;;9.50;6.05;;;;;;;;;;5018578;28;20502;-79
2023/05/07 09:29:50;;;;;;;8.30;5.30;;;;;;;;;;5033458;28;20033;-78
2023/05/07 09:32:16;;;;;;;10.82;5.80;;;;;;;;;;5017201;28;20025;-78
2023/05/07 09:34:41;;;;;;;11.45;5.95;;;;;;;;;;5017527;28;20110;-78
2023/05/07 09:37:07;;;;;;;6.05;4.90;;;;;;;;;;5034709;28;20439;-78
2023/05/07 09:39:46;;;;;;;9.82;6.00;;;;;;;;;;5021816;28;20028;-77
2023/05/07 09:42:12;;;;;;;6.18;4.68;;;;;;;;;;5021846;28;20430;-77
2023/05/07 09:44:37;;;;;;;8.50;5.63;;;;;;;;;;5039005;28;20025;-77
2023/05/07 09:47:06;;;;;;;7.45;5.68;;;;;;;;;;5022691;28;20465;-78
2023/05/07 09:49:37;;;;;;;8.45;5.25;;;;;;;;;;5039182;28;20112;-79
2023/05/07 09:52:06;;;;;;;8.25;5.20;;;;;;;;;;5038972;28;20040;-78
2023/05/07 09:54:32;;;;;;;9.25;5.35;;;;;;;;;;5006606;28;20466;-78
2023/05/07 09:56:58;;;;;;;9.70;5.18;;;;;;;;;;5006644;28;20061;-78
2023/05/07 09:59:23;;;;;;;9.18;5.10;;;;;;;;;;5022236;28;20469;-78
2023/05/07 10:01:48;;;;;;;8.98;5.28;;;;;;;;;;5022312;28;20048;-78
2023/05/07 10:04:14;;;;;;;7.45;4.78;;;;;;;;;;5022465;28;20417;-77
2023/05/07 10:06:40;;;;;;;8.57;5.25;;;;;;;;;;5023771;28;20083;-78
2023/05/07 10:09:05;;;;;;;6.45;5.00;;;;;;;;;;5019219;28;20025;-79
2023/05/07 10:11:33;;;;;;;12.07;5.57;;;;;;;;;;5002581;28;20072;-78
2023/05/07 10:13:58;;;;;;;9.57;5.07;;;;;;;;;;5019020;28;20039;-78
2023/05/07 10:16:24;;;;;;;7.60;4.97;;;;;;;;;;5018806;28;20104;-78
2023/05/07 10:18:49;;;;;;;7.28;4.85;;;;;;;;;;5002557;28;20095;-79
2023/05/07 10:21:19;;;;;;;9.68;5.13;;;;;;;;;;5019104;28;20025;-76
2023/05/07 10:23:45;;;;;;;9.00;4.97;;;;;;;;;;5002667;28;20033;-77
2023/05/07 10:26:10;;;;;;;11.90;4.95;;;;;;;;;;5018526;28;20048;-78
2023/05/07 10:28:38;;;;;;;7.68;4.95;;;;;;;;;;5018646;28;20032;-78
2023/05/07 10:31:22;;;;;;;9.13;4.88;;;;;;;;;;5002495;28;20057;-79
2023/05/07 10:33:47;;;;;;;13.25;5.00;;;;;;;;;;5036308;28;20040;-78
2023/05/07 10:36:13;;;;;;;9.85;4.47;;;;;;;;;;5002169;28;20712;-77
2023/05/07 10:38:40;;;;;;;8.00;4.40;;;;;;;;;;4986042;28;20056;-77
2023/05/07 10:41:06;;;;;;;7.45;4.65;;;;;;;;;;5018510;28;20030;-76
2023/05/07 10:43:51;;;;;;;8.57;5.18;;;;;;;;;;4985999;28;20043;-77
2023/05/07 10:46:18;;;;;;;8.50;4.85;;;;;;;;;;5034178;28;20037;-78
2023/05/07 10:49:11;;;;;;;11.07;5.43;;;;;;;;;;5001535;28;20095;-77
2023/05/07 10:51:37;;;;;;;7.63;4.40;;;;;;;;;;5035862;28;20045;-77
2023/05/07 10:54:11;;;;;;;8.00;4.25;;;;;;;;;;5018171;28;20065;-76
2023/05/07 10:56:42;;;;;;;9.55;4.35;;;;;;;;;;5035668;28;20029;-78
2023/05/07 10:59:20;;;;;;;9.25;4.75;;;;;;;;;;5002520;28;20029;-77
2023/05/07 11:01:59;;;;;;;7.43;4.20;;;;;;;;;;5035586;28;20455;-76
2023/05/07 11:04:26;;;;;;;6.15;4.40;;;;;;;;;;5018542;28;20336;-78
2023/05/07 11:07:08;;;;;;;5.47;3.92;;;;;;;;;;5018188;28;20021;-78
2023/05/07 11:09:51;;;;;;;9.30;4.60;;;;;;;;;;5035213;28;20025;-78
2023/05/07 11:12:40;;;;;;;5.80;4.40;;;;;;;;;;5055528;28;20166;-78
2023/05/07 11:15:09;;;;;;;8.00;4.55;;;;;;;;;;5043134;28;20052;-77
2023/05/07 11:17:51;;;;;;;10.07;4.67;;;;;;;;;;5021116;28;20033;-77
2023/05/07 11:20:17;;;;;;;7.78;4.57;;;;;;;;;;5023403;28;20361;-78
2023/05/07 11:22:42;;;;;;;8.60;4.07;;;;;;;;;;5021300;28;20114;-78
2023/05/07 11:25:07;;;;;;;7.43;4.22;;;;;;;;;;5037477;28;20021;-79
2023/05/07 11:27:33;;;;;;;7.03;4.22;;;;;;;;;;5037464;28;20032;-79
2023/05/07 11:29:59;;;;;;;9.13;4.55;;;;;;;;;;5021124;28;20351;-79
2023/05/07 11:32:28;;;;;;;8.63;4.53;;;;;;;;;;5020921;28;20052;-79
2023/05/07 11:34:54;;;;;;;7.68;4.07;;;;;;;;;;5004589;28;20098;-78
2023/05/07 11:37:20;;;;;;;6.05;4.07;;;;;;;;;;5053959;28;20128;-78
2023/05/07 11:39:46;;;;;;;6.32;4.30;;;;;;;;;;5037010;28;20120;-77
2023/05/07 11:42:28;;;;;;;8.27;4.22;;;;;;;;;;5020836;28;20123;-78
2023/05/07 11:44:53;;;;;;;6.15;4.15;;;;;;;;;;5021022;28;20040;-79
2023/05/07 11:47:19;;;;;;;6.72;3.92;;;;;;;;;;5036973;28;20045;-78
2023/05/07 11:49:48;;;;;;;6.95;3.92;;;;;;;;;;5004269;28;20032;-79
2023/05/07 11:52:13;;;;;;;6.75;3.92;;;;;;;;;;5020521;28;20090;-78
2023/05/07 11:54:39;;;;;;;5.78;4.43;;;;;;;;;;5020162;28;20037;-78
2023/05/07 11:57:05;;;;;;;9.68;4.30;;;;;;;;;;5004215;28;20025;-79
2023/05/07 11:59:40;;;;;;;5.07;3.70;;;;;;;;;;5036684;28;20033;-78
2023/05/07 12:02:06;;;;;;;6.68;4.18;;;;;;;;;;5037544;28;20033;-78
2023/05/07 12:04:31;;;;;;;5.70;4.05;;;;;;;;;;5020357;28;20538;-79
2023/05/07 12:06:57;;;;;;;8.70;3.90;;;;;;;;;;5036538;28;20025;-78
2023/05/07 12:09:22;;;;;;;9.93;4.60;;;;;;;;;;5034112;28;20075;-78
2023/05/07 12:11:48;;;;;;;10.38;4.35;;;;;;;;;;5036422;28;20028;-78
2023/05/07 12:14:15;;;;;;;10.02;4.28;;;;;;;;;;5003753;28;20036;-78
2023/05/07 12:16:41;;;;;;;7.75;4.30;;;;;;;;;;5036918;28;20017;-78
2023/05/07 12:19:08;;;;;;;5.90;4.47;;;;;;;;;;5020162;28;20362;-78
2023/05/07 12:21:34;;;;;;;6.22;4.07;;;;;;;;;;5036592;28;20025;-79
2023/05/07 12:24:00;;;;;;;9.55;4.40;;;;;;;;;;5019505;28;20032;-78
2023/05/07 12:26:26;;;;;;;9.52;4.55;;;;;;;;;;5036337;28;20450;-79
2023/05/07 12:28:51;;;;;;;7.55;4.25;;;;;;;;;;5020152;28;20478;-77
2023/05/07 12:31:17;;;;;;;5.32;4.15;;;;;;;;;;5036183;28;20035;-78
2023/05/07 12:33:42;;;;;;;6.70;4.25;;;;;;;;;;5019577;28;20029;-77
2023/05/07 12:36:08;;;;;;;5.80;4.20;;;;;;;;;;5019653;28;20528;-78
2023/05/07 12:38:37;;;;;;;5.72;3.92;;;;;;;;;;5036073;28;20056;-79
2023/05/07 12:41:03;;;;;;;5.68;3.58;;;;;;;;;;5036231;28;20035;-78
2023/05/07 12:43:29;;;;;;;10.80;4.43;;;;;;;;;;5019460;28;20119;-79
2023/05/07 12:46:06;;;;;;;10.57;3.95;;;;;;;;;;5035889;28;20028;-79
2023/05/07 12:48:31;;;;;;;9.70;3.88;;;;;;;;;;5036078;28;20033;-78
2023/05/07 12:50:58;;;;;;;5.00;3.83;;;;;;;;;;5019769;28;20453;-78
2023/05/07 12:53:25;;;;;;;6.25;3.90;;;;;;;;;;5019337;28;20112;-77
2023/05/07 12:55:52;;;;;;;7.95;4.18;;;;;;;;;;5019770;28;20144;-77
2023/05/07 12:58:32;;;;;;;6.30;4.20;;;;;;;;;;5035999;28;20025;-78
2023/05/07 13:00:59;;;;;;;12.55;4.43;;;;;;;;;;5036121;28;20029;-77
2023/05/07 13:03:25;;;;;;;9.27;4.68;;;;;;;;;;5035594;28;20045;-78
2023/05/07 13:05:51;;;;;;;8.18;3.95;;;;;;;;;;5053252;28;20025;-77
2023/05/07 13:08:31;;;;;;;7.00;4.03;;;;;;;;;;5019322;28;20517;-78
2023/05/07 13:10:57;;;;;;;6.40;3.83;;;;;;;;;;5019260;28;20131;-78
2023/05/07 13:13:23;;;;;;;5.78;4.05;;;;;;;;;;5005509;28;20766;-78
2023/05/07 13:15:48;;;;;;;6.45;3.90;;;;;;;;;;5042260;28;20466;-79
2023/05/07 13:18:14;;;;;;;10.80;4.13;;;;;;;;;;5025632;28;20029;-79
2023/05/07 13:20:40;;;;;;;6.05;3.80;;;;;;;;;;5042168;28;20029;-78
2023/05/07 13:23:06;;;;;;;4.88;3.65;;;;;;;;;;5060200;28;20028;-78
2023/05/07 13:25:31;;;;;;;7.45;4.00;;;;;;;;;;5009423;28;20029;-78
2023/05/07 13:27:57;;;;;;;6.25;3.80;;;;;;;;;;5025650;28;20075;-78
2023/05/07 13:30:22;;;;;;;8.95;3.67;;;;;;;;;;5042256;28;20054;-77
2023/05/07 13:32:48;;;;;;;5.63;4.18;;;;;;;;;;5026037;28;20029;-78
2023/05/07 13:35:14;;;;;;;5.78;3.75;;;;;;;;;;5024422;28;20040;-78
2023/05/07 13:37:39;;;;;;;5.07;3.85;;;;;;;;;;5009053;28;20033;-78
2023/05/07 13:40:06;;;;;;;5.13;3.88;;;;;;;;;;5059887;28;20374;-78
2023/05/07 13:42:31;;;;;;;4.85;4.13;;;;;;;;;;5059889;28;20029;-78
2023/05/07 13:44:57;;;;;;;12.70;3.85;;;;;;;;;;5025480;28;20017;-78
2023/05/07 13:47:22;;;;;;;6.85;3.85;;;;;;;;;;5061173;28;20075;-79
2023/05/07 13:49:49;;;;;;;7.78;3.75;;;;;;;;;;5043053;28;20438;-79
2023/05/07 13:52:16;;;;;;;6.50;4.00;;;;;;;;;;5042693;28;20094;-79
2023/05/07 13:54:41;;;;;;;5.95;4.13;;;;;;;;;;5025630;28;20033;-79
2023/05/07 13:57:07;;;;;;;4.90;3.47;;;;;;;;;;5025435;28;20032;-77
2023/05/07 13:59:33;;;;;;;7.22;3.67;;;;;;;;;;5025608;28;20025;-79
2023/05/07 14:01:58;;;;;;;7.28;4.00;;;;;;;;;;5042098;28;20048;-78
2023/05/07 14:04:23;;;;;;;5.47;4.03;;;;;;;;;;5033761;28;20024;-79
2023/05/07 14:06:49;;;;;;;5.10;3.85;;;;;;;;;;5041808;28;20024;-79
2023/05/07 14:09:14;;;;;;;6.97;3.97;;;;;;;;;;5040888;28;20528;-77
2023/05/07 14:11:40;;;;;;;5.88;3.97;;;;;;;;;;5042079;28;20036;-78
2023/05/07 14:14:05;;;;;;;8.25;3.78;;;;;;;;;;5041747;28;20166;-78
2023/05/07 14:16:31;;;;;;;5.43;3.70;;;;;;;;;;5039147;28;20025;-79
2023/05/07 14:18:56;;;;;;;7.00;3.67;;;;;;;;;;5059482;28;20017;-78
2023/05/07 14:21:21;;;;;;;6.68;4.03;;;;;;;;;;5025271;28;20028;-79
2023/05/07 14:23:48;;;;;;;5.10;4.25;;;;;;;;;;5040453;28;20175;-78
2023/05/07 14:26:13;;;;;;;10.40;3.90;;;;;;;;;;5038386;28;20355;-78
2023/05/07 14:28:39;;;;;;;6.35;4.07;;;;;;;;;;5022066;28;20036;-78